createdAt,value
2018-10-11T00:00:52.500Z,63.6
2018-10-11T00:05:57.360Z,65.7
2018-10-11T00:10:57.227Z,64.9
2018-10-11T00:16:09.991Z,62.5
2018-10-11T00:21:09.655Z,62.1
2018-10-11T00:26:09.692Z,61.4
2018-10-11T00:31:09.930Z,61.9
2018-10-11T00:36:09.872Z,61.8
2018-10-11T00:41:09.664Z,62
2018-10-11T00:46:09.881Z,62
2018-10-11T00:51:12.808Z,62.9
2018-10-11T00:56:12.764Z,62.6
2018-10-11T01:01:24.336Z,62.7
2018-10-11T01:06:24.073Z,64.6
2018-10-11T01:11:24.221Z,66.3
2018-10-11T01:16:24.242Z,67.3
2018-10-11T01:21:24.153Z,69.8
2018-10-11T01:26:24.190Z,70.6
2018-10-11T01:31:24.266Z,71.2
2018-10-11T01:36:24.088Z,73.1
2018-10-11T01:41:24.095Z,74.5
2018-10-11T01:46:36.141Z,74.9
2018-10-11T01:51:35.849Z,75
2018-10-11T01:56:36.121Z,74.9
2018-10-11T02:01:36.025Z,76.6
2018-10-11T02:06:35.939Z,76.9
2018-10-11T02:11:36.002Z,78.3
2018-10-11T02:16:36.110Z,77.3
2018-10-11T02:21:36.808Z,77.6
2018-10-11T02:26:36.804Z,73.1
2018-10-11T02:31:49.176Z,73.5
2018-10-11T02:36:48.946Z,75.7
2018-10-11T02:41:48.899Z,73.3
2018-10-11T02:46:48.914Z,67.2
2018-10-11T02:51:48.953Z,64.5
2018-10-11T02:56:48.785Z,63.8
2018-10-11T03:01:48.929Z,62.8
2018-10-11T03:06:48.945Z,60.6
2018-10-11T03:11:48.977Z,59.1
2018-10-11T03:16:48.923Z,59.2
2018-10-11T03:21:48.953Z,59.6
2018-10-11T03:26:49.093Z,60.2
2018-10-11T03:31:51.995Z,61.2
2018-10-11T03:36:52.036Z,60.7
2018-10-11T03:42:02.408Z,61
2018-10-11T03:47:02.239Z,60.6
2018-10-11T03:52:02.255Z,61.4
2018-10-11T03:57:02.194Z,62.8
2018-10-11T04:02:02.198Z,64.3
2018-10-11T04:07:02.131Z,64.6
2018-10-11T04:12:02.213Z,64.6
2018-10-11T04:17:03.405Z,65
2018-10-11T04:22:03.253Z,65.9
2018-10-11T04:27:16.152Z,64.5
2018-10-11T04:32:16.030Z,65.4
2018-10-11T04:37:15.852Z,65.4
2018-10-11T04:42:15.896Z,65.9
2018-10-11T04:47:15.990Z,66.9
2018-10-11T04:52:15.896Z,66.7
2018-10-11T04:57:16.025Z,67.1
2018-10-11T05:02:15.899Z,68.6
2018-10-11T05:07:16.131Z,68.3
2018-10-11T05:12:15.874Z,67.4
2018-10-11T05:17:15.963Z,68
2018-10-11T05:22:16.101Z,67.3
2018-10-11T05:27:16.606Z,69
2018-10-11T05:32:16.594Z,69.7
2018-10-11T05:37:29.517Z,69.8
2018-10-11T05:42:29.251Z,69.4
2018-10-11T05:47:29.251Z,69
2018-10-11T05:52:29.401Z,68.8
2018-10-11T05:57:29.473Z,68.5
2018-10-11T06:02:29.380Z,68
2018-10-11T06:07:29.416Z,67
2018-10-11T06:12:30.726Z,66.4
2018-10-11T06:17:30.621Z,64.7
2018-10-11T06:22:43.142Z,65.1
2018-10-11T06:27:43.108Z,64.3
2018-10-11T06:32:43.109Z,63.7
2018-10-11T06:37:43.108Z,62.7
2018-10-11T06:42:43.313Z,63.1
2018-10-11T06:47:42.885Z,62.1
2018-10-11T06:52:42.999Z,62.1
2018-10-11T06:57:43.852Z,61.3
2018-10-11T07:02:43.552Z,60.3
2018-10-11T07:07:56.634Z,60.1
2018-10-11T07:12:56.596Z,59.9
2018-10-11T07:17:56.534Z,59.5
2018-10-11T07:22:56.588Z,58.4
2018-10-11T07:27:56.591Z,58.1
2018-10-11T07:32:56.514Z,54.8
2018-10-11T07:37:56.378Z,52.8
2018-10-11T07:42:57.061Z,51.6
2018-10-11T07:47:56.923Z,51.8
2018-10-11T07:53:10.240Z,51.1
2018-10-11T07:58:09.914Z,49.3
2018-10-11T08:03:09.842Z,49.1
2018-10-11T08:08:10.123Z,48.8
2018-10-11T08:13:09.809Z,48
2018-10-11T08:18:09.851Z,48.2
2018-10-11T08:23:09.686Z,48.2
2018-10-11T08:28:10.978Z,47.8
2018-10-11T08:33:10.856Z,48
2018-10-11T08:38:23.808Z,48.2
2018-10-11T08:43:23.561Z,47.5
2018-10-11T08:48:23.620Z,48.1
2018-10-11T08:53:23.378Z,49.2
2018-10-11T08:58:23.337Z,50.2
2018-10-11T09:03:23.857Z,48.8
2018-10-11T09:08:23.340Z,49
2018-10-11T09:13:23.842Z,48.4
2018-10-11T09:18:23.666Z,49.2
2018-10-11T09:23:35.994Z,47.7
2018-10-11T09:28:38.926Z,47.8
2018-10-11T09:33:35.830Z,48
2018-10-11T09:38:35.700Z,47.2
2018-10-11T09:43:35.907Z,48.1
2018-10-11T09:48:36.046Z,47.4
2018-10-11T09:53:35.892Z,46.7
2018-10-11T09:58:36.652Z,47.2
2018-10-11T10:03:36.380Z,45.8
2018-10-11T10:08:49.546Z,45.3
2018-10-11T10:13:49.415Z,44.4
2018-10-11T10:18:49.461Z,44.5
2018-10-11T10:23:49.532Z,44.9
2018-10-11T10:28:49.419Z,44.5
2018-10-11T10:33:49.558Z,44.6
2018-10-11T10:38:49.479Z,43.8
2018-10-11T10:43:51.974Z,43.8
2018-10-11T10:48:51.856Z,43
2018-10-11T10:54:02.685Z,43.3
2018-10-11T10:59:02.699Z,42.3
2018-10-11T11:04:02.670Z,41.2
2018-10-11T11:09:02.582Z,41.9
2018-10-11T11:14:02.615Z,42.2
2018-10-11T11:19:02.839Z,41.5
2018-10-11T11:24:02.605Z,41.6
2018-10-11T11:29:04.756Z,39.1
2018-10-11T11:34:04.602Z,37.2
2018-10-11T11:39:17.446Z,37.8
2018-10-11T11:44:17.129Z,36.5
2018-10-11T11:49:17.153Z,37.1
2018-10-11T11:54:17.353Z,31.9
2018-10-11T11:59:17.480Z,29.3
2018-10-11T12:04:17.310Z,29.6
2018-10-11T12:09:17.351Z,30.4
2018-10-11T12:14:18.713Z,29.7
2018-10-11T12:19:18.642Z,28
2018-10-11T12:24:33.914Z,27.3
2018-10-11T12:29:36.650Z,28.1
2018-10-11T12:34:33.786Z,26.2
2018-10-11T12:39:33.692Z,26.5
2018-10-11T12:44:33.608Z,27.1
2018-10-11T12:49:41.643Z,28
2018-10-11T12:54:33.625Z,26.1
2018-10-11T12:59:34.276Z,28
2018-10-11T13:04:34.237Z,27.9
2018-10-11T13:09:46.625Z,28.1
2018-10-11T13:14:46.457Z,28.2
2018-10-11T13:19:46.473Z,27.5
2018-10-11T13:24:49.618Z,27.7
2018-10-11T13:29:46.361Z,27.6
2018-10-11T13:34:46.901Z,27.1
2018-10-11T13:39:57.690Z,28.6
2018-10-11T13:44:52.175Z,27.4
2018-10-11T13:49:51.878Z,28.9
2018-10-11T13:55:14.192Z,29.6
2018-10-11T14:00:01.770Z,29.6
2018-10-11T14:05:01.865Z,27.6
2018-10-11T14:10:01.752Z,27.5
2018-10-11T14:15:01.761Z,27.1
2018-10-11T14:20:01.729Z,27.9
2018-10-11T14:25:01.878Z,29.2
2018-10-11T14:30:02.187Z,28.4
2018-10-11T14:35:02.067Z,29.6
2018-10-11T14:40:14.927Z,28.6
2018-10-11T14:45:14.625Z,30.8
2018-10-11T14:50:14.888Z,29.7
2018-10-11T14:55:14.743Z,30.3
2018-10-11T15:00:15.497Z,30.8
2018-10-11T15:05:14.962Z,31.5
2018-10-11T15:10:14.746Z,32
2018-10-11T15:15:15.912Z,33.1
2018-10-11T15:20:15.505Z,32.7
2018-10-11T15:25:27.814Z,32
2018-10-11T15:30:27.578Z,33.6
2018-10-11T15:35:27.586Z,33.5
2018-10-11T15:40:27.590Z,34.7
2018-10-11T15:45:27.986Z,34.9
2018-10-11T15:50:27.699Z,34.8
2018-10-11T15:55:27.711Z,35.9
2018-10-11T16:00:28.370Z,35.8
2018-10-11T16:05:28.288Z,36.3
2018-10-11T16:10:40.812Z,37.1
2018-10-11T16:15:40.719Z,37.9
2018-10-11T16:20:40.693Z,38.1
2018-10-11T16:25:40.689Z,37.9
2018-10-11T16:30:40.823Z,38.7
2018-10-11T16:35:40.561Z,38.3
2018-10-11T16:40:40.855Z,39.4
2018-10-11T16:45:45.966Z,40.1
2018-10-11T16:50:44.854Z,39.3
2018-10-11T16:55:58.092Z,40.5
2018-10-11T17:00:57.843Z,39.8
2018-10-11T17:05:58.284Z,40
2018-10-11T17:10:57.852Z,40.5
2018-10-11T17:15:57.901Z,39.7
2018-10-11T17:20:57.875Z,41.4
2018-10-11T17:25:57.835Z,41.1
2018-10-11T17:30:57.862Z,40.9
2018-10-11T17:35:57.847Z,41.4
2018-10-11T17:41:14.806Z,41.8
2018-10-11T17:46:14.511Z,41.3
2018-10-11T17:51:16.395Z,41.5
2018-10-11T17:56:16.183Z,41
2018-10-11T18:01:28.241Z,41.9
2018-10-11T18:06:28.239Z,42.2
2018-10-11T18:11:27.969Z,42.4
2018-10-11T18:16:28.134Z,41.6
2018-10-11T18:21:28.171Z,40.7
2018-10-11T18:26:28.013Z,41.7
2018-10-11T18:31:28.104Z,41.4
2018-10-11T18:36:28.782Z,41.6
2018-10-11T18:41:28.545Z,40.7
2018-10-11T18:46:41.763Z,40.5
2018-10-11T18:51:41.520Z,41.3
2018-10-11T18:56:41.491Z,41.9
2018-10-11T19:01:41.536Z,42.1
2018-10-11T19:06:41.806Z,42
2018-10-11T19:11:41.419Z,42.2
2018-10-11T19:16:41.579Z,40.9
2018-10-11T19:21:42.004Z,41.2
2018-10-11T19:26:41.755Z,42.2
2018-10-11T19:31:56.211Z,42.9
2018-10-11T19:36:55.608Z,42.6
2018-10-11T19:41:56.985Z,43.4
2018-10-11T19:46:55.464Z,42.9
2018-10-11T19:51:55.816Z,43.9
2018-10-11T19:56:55.462Z,42.8
2018-10-11T20:01:55.796Z,43.6
2018-10-11T20:06:56.160Z,43.7
2018-10-11T20:11:56.080Z,44.2
2018-10-11T20:17:08.564Z,43.7
2018-10-11T20:22:08.443Z,44.5
2018-10-11T20:27:08.487Z,44.1
2018-10-11T20:32:08.210Z,45
2018-10-11T20:37:08.200Z,45.1
2018-10-11T20:42:08.342Z,45.4
2018-10-11T20:47:08.309Z,44.8
2018-10-11T20:52:08.463Z,45.3
2018-10-11T20:57:08.448Z,46
2018-10-11T21:02:21.349Z,45.9
2018-10-11T21:07:21.109Z,46.7
2018-10-11T21:12:21.176Z,47
2018-10-11T21:17:21.066Z,48
2018-10-11T21:22:21.056Z,48.3
2018-10-11T21:27:21.067Z,50.5
2018-10-11T21:32:21.184Z,50.8
2018-10-11T21:37:21.207Z,53.2
2018-10-11T21:42:21.093Z,53.2
2018-10-11T21:47:21.283Z,54.6
2018-10-11T21:52:21.187Z,55.3
2018-10-11T21:57:21.077Z,55.9
2018-10-11T22:02:21.801Z,57.2
2018-10-11T22:07:21.544Z,58.2
2018-10-11T22:12:35.390Z,58.5
2018-10-11T22:17:35.100Z,58
2018-10-11T22:22:35.259Z,59.7
2018-10-11T22:27:35.428Z,58.9
2018-10-11T22:32:35.110Z,60.1
2018-10-11T22:37:35.104Z,59.5
2018-10-11T22:42:35.278Z,59.2
2018-10-11T22:47:35.116Z,60.3
2018-10-11T22:52:35.138Z,61.3
2018-10-11T22:57:47.270Z,62
2018-10-11T23:02:47.226Z,62
2018-10-11T23:07:47.125Z,61.6
2018-10-11T23:12:47.008Z,63.2
2018-10-11T23:17:46.995Z,64.1
2018-10-11T23:22:47.587Z,64.2
2018-10-11T23:27:47.487Z,64.1
2018-10-11T23:32:47.523Z,64.9
2018-10-11T23:37:47.542Z,64.3
2018-10-11T23:42:47.484Z,65
2018-10-11T23:47:48.409Z,66.2
2018-10-11T23:52:48.615Z,65.4
2018-10-11T23:57:48.590Z,66.6
